Aérodrome :
LOGIN :

S'inscrire | Disclaimer

   EN    FR    IT 

 










Légende :    VFR   VFR Marginal   IFR   IFR Intensif   IFR Très Intensif
Visi : 
Plafond : 
>= 8 km
>= 3000ft
5 à 8 km
1000 à 3000 ft
1500m à 5 km
500 à 1000 ft
800 à 1500m
200 à 500 ft
< 800m
< 200 ft
Symboles :   Orages  Brouillard  Fortes neiges  Fortes précipitations  Vent > 20 kt
SIGMETs :   Divers  Orages  Givrage  Turbulence  Onde Orograph.  Cendres Volcan.







- Altitude de l'aérodrome : 600 ft
- Code IATA : VIE


LOWW - Vienna Schwechat

DERNIER METAR :
  • 181050Z VRB03KT CAVOK 17/14 Q1017 NOSIG

METARs EXPIRÉS :
  • 181020Z VRB03KT 8000 FEW012 SCT300 16/13 Q1017 NOSIG
  • 180950Z VRB01KT 6000 FEW009 BKN011 15/13 Q1018 BECMG SCT012
  • 180920Z VRB03KT 6000 FEW007 BKN009 15/12 Q1018 BECMG SCT009 BKN012
  • 180850Z 14005KT 5000 BR FEW006 BKN008 14/13 Q1018 BECMG SCT008 BKN010
  • 180820Z 14005KT 5000 BR FEW005 BKN006 14/12 Q1018 BECMG SCT006 BKN008

TAF AMD TAF LOWW
Valide du 18 à 10h jusqu'au 19 à 12h UTC


181008Z 1810/1912 VRB02KT 7000 SCT012 TX18/1813Z TN08/1904Z
BECMG 1810/1812 CAVOK
BECMG 1818/1820 2500 BR FEW003
BECMG 1820/1822 1200 BCFG SCT001
TEMPO 1822/1907 VRB02KT 0300 FG VV001
BECMG 1907/1910 2300 BR BKN004
BECMG 1910/1912 03004KT 6000 NSW SCT010
Pas de NOTAMs connus pour ce terrain.



MET'MAP, la Météo Aéronautique d'un coup d'oeil ! - Copyright ORBIFLY Décembre 2007 - Disclaimer

ORBIFLY MET'MAP TEAM :

Programmation & Développement : Alexandra Zaïnal
Conception & Développement : Baudouin d'Aumeries
Co-Programmation & Développement : Marc-Olivier Méhu
Soutien technique & logistique : Manuel Goepfert

Contact : metmap@orbifly.com




SOURCES & CREDITS :

   NOAA